createdAt,value
2019-03-09T00:00:08.933Z,99013.98
2019-03-09T00:02:37.994Z,99014.14
2019-03-09T00:05:07.175Z,99012.88
2019-03-09T00:07:36.239Z,99017.99
2019-03-09T00:10:05.669Z,99012.93
2019-03-09T00:12:34.738Z,99008.57
2019-03-09T00:15:06.468Z,99007.05
2019-03-09T00:17:35.618Z,99008.16
2019-03-09T00:20:04.710Z,99002.08
2019-03-09T00:22:33.791Z,98994.05
2019-03-09T00:25:13.799Z,98995.11
2019-03-09T00:27:47.406Z,98985.84
2019-03-09T00:30:25.830Z,98988.03
2019-03-09T00:32:54.938Z,98989.25
2019-03-09T00:35:24.067Z,98984.17
2019-03-09T00:37:53.156Z,98992.18
2019-03-09T00:40:23.420Z,98995.17
2019-03-09T00:42:52.587Z,98998.91
2019-03-09T00:45:23.230Z,98995.67
2019-03-09T00:47:55.496Z,98989.88
2019-03-09T00:50:25.613Z,98988.78
2019-03-09T00:52:54.623Z,98983.15
2019-03-09T00:55:23.720Z,98971.45
2019-03-09T00:57:52.843Z,98967.56
2019-03-09T01:00:21.935Z,98971.70
2019-03-09T01:02:51.309Z,98973.58
2019-03-09T01:05:20.460Z,98978.44
2019-03-09T01:07:49.518Z,98979.64
2019-03-09T01:10:18.607Z,98984.81
2019-03-09T01:12:47.617Z,98978.48
2019-03-09T01:15:16.672Z,98972.56
2019-03-09T01:17:46.413Z,98963.53
2019-03-09T01:20:16.368Z,98965.87
2019-03-09T01:22:45.458Z,98956.37
2019-03-09T01:25:14.530Z,98961.42
2019-03-09T01:27:43.572Z,98953.06
2019-03-09T01:30:15.279Z,98950.64
2019-03-09T01:32:44.317Z,98942.15
2019-03-09T01:35:13.440Z,98939.20
2019-03-09T01:37:42.451Z,98939.17
2019-03-09T01:40:12.183Z,98903.46
2019-03-09T01:42:41.191Z,98924.71
2019-03-09T01:45:11.506Z,98924.13
2019-03-09T01:47:40.540Z,98928.36
2019-03-09T01:50:09.699Z,98911.05
2019-03-09T01:52:38.783Z,98909.95
2019-03-09T01:55:07.919Z,98896.84
2019-03-09T01:57:37.009Z,98897.42
2019-03-09T02:00:06.534Z,98895.00
2019-03-09T02:02:35.622Z,98894.25
2019-03-09T02:05:04.973Z,98888.90
2019-03-09T02:07:34.074Z,98891.73
2019-03-09T02:10:03.159Z,98886.82
2019-03-09T02:12:32.998Z,98882.27
2019-03-09T02:15:02.153Z,98883.54
2019-03-09T02:17:33.253Z,98880.59
2019-03-09T02:20:02.370Z,98879.24
2019-03-09T02:22:32.451Z,98866.59
2019-03-09T02:25:01.540Z,98871.69
2019-03-09T02:27:30.598Z,98861.98
2019-03-09T02:29:59.621Z,98854.91
2019-03-09T02:32:28.744Z,98853.68
2019-03-09T02:34:57.809Z,98857.55
2019-03-09T02:37:26.896Z,98853.68
2019-03-09T02:40:04.963Z,98853.70
2019-03-09T02:42:34.071Z,98854.98
2019-03-09T02:45:04.001Z,98854.53
2019-03-09T02:47:33.039Z,98852.78
2019-03-09T02:50:03.781Z,98849.96
2019-03-09T02:52:32.919Z,98844.65
2019-03-09T02:55:01.910Z,98842.08
2019-03-09T02:57:31.003Z,98851.84
2019-03-09T03:00:01.247Z,98840.81
2019-03-09T03:02:49.735Z,98846.92
2019-03-09T03:05:19.907Z,98851.45
2019-03-09T03:07:48.997Z,98848.13
2019-03-09T03:10:18.034Z,98849.09
2019-03-09T03:12:47.238Z,98849.30
2019-03-09T03:15:29.534Z,98857.70
2019-03-09T03:17:58.916Z,98855.36
2019-03-09T03:20:28.050Z,98858.74
2019-03-09T03:22:57.092Z,98845.73
2019-03-09T03:25:26.170Z,98839.28
2019-03-09T03:27:55.236Z,98834.93
2019-03-09T03:30:24.263Z,98843.98
2019-03-09T03:32:54.770Z,98843.78
2019-03-09T03:35:23.799Z,98849.97
2019-03-09T03:37:52.842Z,98843.36
2019-03-09T03:40:21.923Z,98842.31
2019-03-09T03:42:50.973Z,98845.69
2019-03-09T03:45:20.015Z,98841.69
2019-03-09T03:47:49.063Z,98852.17
2019-03-09T03:50:18.080Z,98852.99
2019-03-09T03:52:47.142Z,98847.03
2019-03-09T03:55:16.248Z,98848.72
2019-03-09T03:57:45.344Z,98855.63
2019-03-09T04:00:14.375Z,98862.09
2019-03-09T04:02:43.485Z,98861.56
2019-03-09T04:05:12.561Z,98858.27
2019-03-09T04:07:41.586Z,98856.57
2019-03-09T04:10:10.690Z,98857.16
2019-03-09T04:12:39.730Z,98862.44
2019-03-09T04:15:08.781Z,98859.45
2019-03-09T04:17:37.843Z,98863.84
2019-03-09T04:20:07.035Z,98866.05
2019-03-09T04:22:36.084Z,98865.99
2019-03-09T04:25:05.445Z,98878.72
2019-03-09T04:27:34.470Z,98879.87
2019-03-09T04:30:03.529Z,98877.11
2019-03-09T04:32:32.553Z,98884.61
2019-03-09T04:35:01.577Z,98887.11
2019-03-09T04:37:30.615Z,98888.81
2019-03-09T04:39:59.700Z,98891.08
2019-03-09T04:42:28.710Z,98889.17
2019-03-09T04:44:57.778Z,98899.33
2019-03-09T04:47:26.797Z,98894.28
2019-03-09T04:49:55.885Z,98899.36
2019-03-09T04:52:24.906Z,98905.37
2019-03-09T04:54:53.953Z,98907.65
2019-03-09T04:57:23.024Z,98904.99
2019-03-09T04:59:52.244Z,98900.44
2019-03-09T05:02:21.309Z,98883.88
2019-03-09T05:04:51.855Z,98891.34
2019-03-09T05:08:08.406Z,98882.19
2019-03-09T05:10:49.939Z,98883.27
2019-03-09T05:13:42.598Z,98879.93
2019-03-09T05:16:11.637Z,98874.88
2019-03-09T05:18:40.662Z,98871.83
2019-03-09T05:21:09.765Z,98861.15
2019-03-09T05:23:41.184Z,98857.80
2019-03-09T05:26:10.249Z,98848.91
2019-03-09T05:28:40.821Z,98856.95
2019-03-09T05:31:09.907Z,98868.13
2019-03-09T05:33:40.703Z,98861.27
2019-03-09T05:36:09.775Z,98864.02
2019-03-09T05:38:38.782Z,98875.91
2019-03-09T05:41:07.866Z,98872.56
2019-03-09T05:43:36.973Z,98875.17
2019-03-09T05:46:06.111Z,98880.23
2019-03-09T05:48:35.261Z,98883.22
2019-03-09T05:51:06.512Z,98889.23
2019-03-09T05:53:36.671Z,98888.73
2019-03-09T05:56:07.720Z,98899.42
2019-03-09T05:58:36.502Z,98895.08
2019-03-09T06:01:05.599Z,98901.30
2019-03-09T06:03:37.073Z,98907.20
2019-03-09T06:06:15.039Z,98911.52
2019-03-09T06:08:44.412Z,98912.80
2019-03-09T06:11:13.449Z,98913.55
2019-03-09T06:13:42.542Z,98917.27
2019-03-09T06:16:13.694Z,98915.21
2019-03-09T06:18:44.324Z,98925.17
2019-03-09T06:21:13.495Z,98932.13
2019-03-09T06:23:42.640Z,98936.83
2019-03-09T06:26:11.805Z,98930.02
2019-03-09T06:28:40.965Z,98940.02
2019-03-09T06:31:09.996Z,98947.68
2019-03-09T06:33:39.971Z,98951.17
2019-03-09T06:36:28.762Z,98957.16
2019-03-09T06:39:00.542Z,98964.05
2019-03-09T06:41:36.932Z,98966.42
2019-03-09T06:44:06.003Z,98963.42
2019-03-09T06:46:35.310Z,98972.83
2019-03-09T06:49:05.680Z,98970.81
2019-03-09T06:51:36.740Z,98976.72
2019-03-09T06:54:05.771Z,98970.70
2019-03-09T06:56:34.821Z,98969.88
2019-03-09T06:59:06.287Z,98975.79
2019-03-09T07:01:37.788Z,98985.59
2019-03-09T07:04:06.814Z,98994.50
2019-03-09T07:06:35.860Z,98983.06
2019-03-09T07:09:05.758Z,98996.05
2019-03-09T07:11:34.826Z,99002.58
2019-03-09T07:14:39.926Z,99014.77
2019-03-09T07:17:09.041Z,99007.48
2019-03-09T07:19:38.068Z,99012.35
2019-03-09T07:22:07.161Z,99022.19
2019-03-09T07:24:36.199Z,99015.41
2019-03-09T07:27:05.328Z,99018.24
2019-03-09T07:29:34.446Z,99020.55
2019-03-09T07:32:05.084Z,99016.62
2019-03-09T07:34:34.150Z,99014.83
2019-03-09T07:37:03.193Z,99023.92
2019-03-09T07:39:32.269Z,99017.03
2019-03-09T07:42:01.278Z,99022.39
2019-03-09T07:44:30.356Z,99024.00
2019-03-09T07:46:59.446Z,99039.41
2019-03-09T07:49:28.494Z,99042.33
2019-03-09T07:51:57.557Z,99048.33
2019-03-09T07:54:26.661Z,99049.88
2019-03-09T07:56:56.663Z,99053.22
2019-03-09T07:59:25.743Z,99048.60
2019-03-09T08:01:55.092Z,99055.75
2019-03-09T08:04:24.229Z,99057.70
2019-03-09T08:07:00.999Z,99053.48
2019-03-09T08:09:32.908Z,99059.25
2019-03-09T08:12:02.079Z,99051.42
2019-03-09T08:14:31.232Z,99053.63
2019-03-09T08:17:00.312Z,99053.09
2019-03-09T08:19:29.388Z,99048.86
2019-03-09T08:21:58.467Z,99034.48
2019-03-09T08:24:27.552Z,99051.37
2019-03-09T08:26:56.592Z,99055.46
2019-03-09T08:29:25.713Z,99055.56
2019-03-09T08:31:55.871Z,99054.58
2019-03-09T08:34:25.057Z,98982.22
2019-03-09T08:36:54.111Z,99057.39
2019-03-09T08:39:23.257Z,99068.12
2019-03-09T08:41:52.361Z,99081.36
2019-03-09T08:44:21.648Z,99094.41
2019-03-09T08:46:50.798Z,99096.31
2019-03-09T08:49:20.006Z,99097.72
2019-03-09T08:51:49.924Z,99096.38
2019-03-09T08:54:19.010Z,99094.53
2019-03-09T08:56:48.071Z,99094.25
2019-03-09T08:59:17.224Z,99097.87
2019-03-09T09:01:46.368Z,99098.81
2019-03-09T09:04:16.296Z,99102.95
2019-03-09T09:06:45.435Z,99102.65
2019-03-09T09:09:14.507Z,99102.09
2019-03-09T09:11:44.655Z,99102.09
2019-03-09T09:14:13.752Z,99106.33
2019-03-09T09:16:43.087Z,99100.66
2019-03-09T09:19:12.304Z,99098.38
2019-03-09T09:21:41.471Z,99100.39
2019-03-09T09:24:10.702Z,99107.09
2019-03-09T09:26:39.904Z,99106.64
2019-03-09T09:29:11.321Z,99113.88
2019-03-09T09:31:40.385Z,99120.72
2019-03-09T09:34:09.528Z,99126.56
2019-03-09T09:36:38.609Z,99125.80
2019-03-09T09:39:09.309Z,99124.24
2019-03-09T09:41:38.357Z,99125.05
2019-03-09T09:44:07.493Z,99130.86
2019-03-09T09:46:36.611Z,99123.15
2019-03-09T09:49:05.804Z,99136.62
2019-03-09T09:51:34.835Z,99132.65
2019-03-09T09:54:03.911Z,99139.37
2019-03-09T09:56:33.952Z,99129.80
2019-03-09T09:59:03.666Z,99124.14
2019-03-09T10:01:34.817Z,99124.64
2019-03-09T10:04:06.150Z,99127.75
2019-03-09T10:06:36.843Z,99132.02
2019-03-09T10:09:07.326Z,99138.94
2019-03-09T10:11:36.427Z,99144.58
2019-03-09T10:14:05.625Z,99150.44
2019-03-09T10:16:34.765Z,99152.11
2019-03-09T10:19:03.984Z,99141.25
2019-03-09T10:21:33.158Z,99134.22
2019-03-09T10:24:02.215Z,99125.89
2019-03-09T10:26:31.298Z,99116.55
2019-03-09T10:29:00.373Z,99110.38
2019-03-09T10:31:29.513Z,99101.20
2019-03-09T10:33:58.538Z,99102.17
2019-03-09T10:36:27.650Z,99088.83
2019-03-09T10:38:56.714Z,99075.77
2019-03-09T10:41:25.732Z,99059.23
2019-03-09T10:43:54.809Z,99038.39
2019-03-09T10:46:23.908Z,99039.27
2019-03-09T10:48:55.054Z,99067.73
2019-03-09T10:51:25.857Z,99074.33
2019-03-09T10:53:54.923Z,99098.14
2019-03-09T10:56:24.012Z,99090.03
2019-03-09T10:58:53.062Z,99085.80
2019-03-09T11:01:22.138Z,99092.61
2019-03-09T11:03:52.363Z,99092.95
2019-03-09T11:06:55.712Z,99098.00
2019-03-09T11:08:56.426Z,99090.73
2019-03-09T11:11:25.506Z,99088.76
2019-03-09T11:13:54.588Z,99090.52
2019-03-09T11:16:25.938Z,99093.24
2019-03-09T11:18:54.972Z,99081.77
2019-03-09T11:21:24.050Z,99094.45
2019-03-09T11:23:53.308Z,99089.62
2019-03-09T11:26:22.982Z,99097.14
2019-03-09T11:28:52.658Z,99096.75
2019-03-09T11:31:22.065Z,99099.77
2019-03-09T11:33:52.154Z,99102.08
2019-03-09T11:36:21.972Z,99099.63
2019-03-09T11:38:52.055Z,99096.94
2019-03-09T11:41:21.806Z,99098.22
2019-03-09T11:43:51.173Z,99098.22
2019-03-09T11:46:22.201Z,99048.98
2019-03-09T11:48:51.674Z,99057.80
2019-03-09T11:51:23.880Z,99061.19
2019-03-09T11:53:54.905Z,99079.69
2019-03-09T11:56:25.541Z,99070.81
2019-03-09T11:58:55.189Z,99066.50
2019-03-09T12:01:24.758Z,99058.32
2019-03-09T12:03:53.955Z,99056.05
2019-03-09T12:06:23.050Z,99068.93
2019-03-09T12:08:52.181Z,99061.91
2019-03-09T12:11:21.382Z,99060.28
2019-03-09T12:13:50.603Z,99023.47
2019-03-09T12:16:19.785Z,98988.36
2019-03-09T12:18:49.356Z,99001.81
2019-03-09T12:21:18.986Z,99021.08
2019-03-09T12:23:48.714Z,99013.88
2019-03-09T12:26:18.716Z,99024.16
2019-03-09T12:28:47.982Z,99007.50
2019-03-09T12:31:19.158Z,99000.70
2019-03-09T12:33:48.502Z,98991.41
2019-03-09T12:36:17.941Z,98974.55
2019-03-09T12:38:47.383Z,98937.20
2019-03-09T12:41:16.967Z,98975.61
2019-03-09T12:43:46.241Z,98954.13
2019-03-09T12:46:17.458Z,98931.34
2019-03-09T12:48:48.333Z,98920.03
2019-03-09T12:51:17.759Z,98911.52
2019-03-09T12:53:47.265Z,98920.11
2019-03-09T12:56:18.355Z,98899.08
2019-03-09T12:58:47.616Z,98905.58
2019-03-09T13:01:18.444Z,98907.59
2019-03-09T13:03:48.298Z,98889.54
2019-03-09T13:06:19.511Z,98902.50
2019-03-09T13:08:48.896Z,98905.50
2019-03-09T13:11:18.515Z,98902.16
2019-03-09T13:13:47.709Z,98897.69
2019-03-09T13:16:18.596Z,98903.63
2019-03-09T13:18:49.508Z,98888.94
2019-03-09T13:21:21.014Z,98891.68
2019-03-09T13:23:52.854Z,98912.02
2019-03-09T13:26:23.587Z,98889.38
2019-03-09T13:28:53.250Z,98887.70
2019-03-09T13:31:25.071Z,98891.76
2019-03-09T13:33:54.442Z,98881.40
2019-03-09T13:36:25.532Z,98880.45
2019-03-09T13:38:55.699Z,98881.25
2019-03-09T13:41:24.873Z,98871.98
2019-03-09T13:43:54.265Z,98870.64
2019-03-09T13:46:24.008Z,98855.97
2019-03-09T13:48:53.354Z,98847.05
2019-03-09T13:51:22.789Z,98830.23
2019-03-09T13:53:52.282Z,98824.94
2019-03-09T13:56:21.633Z,98829.59
2019-03-09T13:58:50.975Z,98829.37
2019-03-09T14:01:20.219Z,98823.91
2019-03-09T14:03:49.286Z,98819.80
2019-03-09T14:06:18.332Z,98823.00
2019-03-09T14:08:47.388Z,98818.66
2019-03-09T14:11:16.438Z,98821.11
2019-03-09T14:13:45.501Z,98811.75
2019-03-09T14:16:14.583Z,98810.17
2019-03-09T14:18:43.670Z,98800.38
2019-03-09T14:21:12.786Z,98808.28
2019-03-09T14:23:41.863Z,98809.61
2019-03-09T14:26:10.902Z,98804.76
2019-03-09T14:28:39.963Z,98808.67
2019-03-09T14:31:11.336Z,98798.63
2019-03-09T14:33:40.399Z,98800.19
2019-03-09T14:36:11.788Z,98817.13
2019-03-09T14:38:40.853Z,98826.82
2019-03-09T14:41:09.944Z,98827.11
2019-03-09T14:43:39.032Z,98810.30
2019-03-09T14:46:10.510Z,98794.16
2019-03-09T14:48:39.624Z,98823.27
2019-03-09T14:51:08.660Z,98813.78
2019-03-09T14:53:37.712Z,98801.73
2019-03-09T14:56:06.790Z,98808.53
2019-03-09T14:58:35.831Z,98810.04
2019-03-09T15:01:04.961Z,98804.47
2019-03-09T15:03:33.992Z,98805.80
2019-03-09T15:06:03.307Z,98817.36
2019-03-09T15:08:32.371Z,98820.42
2019-03-09T15:11:01.470Z,98817.76
2019-03-09T15:13:30.642Z,98795.83
2019-03-09T15:15:59.772Z,98786.08
2019-03-09T15:18:28.799Z,98791.14
2019-03-09T15:20:57.930Z,98795.86
2019-03-09T15:23:27.009Z,98798.69
2019-03-09T15:25:56.225Z,98799.16
2019-03-09T15:28:25.255Z,98806.14
2019-03-09T15:30:56.072Z,98821.95
2019-03-09T15:33:25.647Z,98808.74
2019-03-09T15:35:56.451Z,98819.74
2019-03-09T15:38:25.594Z,98822.48
2019-03-09T15:40:56.249Z,98827.34
2019-03-09T15:43:25.347Z,98837.49
2019-03-09T15:45:54.442Z,98839.28
2019-03-09T15:48:24.058Z,98832.25
2019-03-09T15:50:53.241Z,98828.46
2019-03-09T15:53:22.377Z,98832.98
2019-03-09T15:55:51.505Z,98830.89
2019-03-09T15:58:20.572Z,98839.80
2019-03-09T16:00:49.771Z,98851.25
2019-03-09T16:03:18.868Z,98858.95
2019-03-09T16:05:47.989Z,98834.43
2019-03-09T16:08:17.077Z,98759.23
2019-03-09T16:10:46.168Z,98833.30
2019-03-09T16:13:15.228Z,98833.84
2019-03-09T16:15:44.375Z,98829.80
2019-03-09T16:18:13.475Z,98811.84
2019-03-09T16:20:42.519Z,98835.11
2019-03-09T16:23:11.705Z,98838.62
2019-03-09T16:25:40.749Z,98848.31
2019-03-09T16:28:09.900Z,98843.00
2019-03-09T16:30:39.015Z,98842.16
2019-03-09T16:33:08.159Z,98840.88
2019-03-09T16:35:37.302Z,98854.69
2019-03-09T16:38:06.422Z,98855.02
2019-03-09T16:40:40.421Z,98869.64
2019-03-09T16:43:06.447Z,98881.06
2019-03-09T16:45:35.504Z,98871.50
2019-03-09T16:48:04.620Z,98878.53
2019-03-09T16:50:33.658Z,98897.02
2019-03-09T16:53:02.703Z,98917.19
2019-03-09T16:55:33.065Z,98913.47
2019-03-09T16:58:02.316Z,98920.52
2019-03-09T17:00:31.408Z,98923.99
2019-03-09T17:03:00.470Z,98944.03
2019-03-09T17:05:29.575Z,98930.88
2019-03-09T17:07:58.703Z,98925.30
2019-03-09T17:10:27.844Z,98916.47
2019-03-09T17:12:57.320Z,98927.74
2019-03-09T17:15:26.434Z,98938.03
2019-03-09T17:17:55.526Z,98943.45
2019-03-09T17:20:24.568Z,98947.77
2019-03-09T17:22:53.725Z,98953.63
2019-03-09T17:25:22.792Z,98949.10
2019-03-09T17:27:51.917Z,98950.09
2019-03-09T17:30:21.000Z,98971.75
2019-03-09T17:32:51.512Z,98983.09
2019-03-09T17:35:25.683Z,98996.06
2019-03-09T17:37:54.871Z,98994.95
2019-03-09T17:40:24.023Z,99008.11
2019-03-09T17:42:56.510Z,99002.25
2019-03-09T17:45:27.126Z,99018.80
2019-03-09T17:47:56.244Z,99021.09
2019-03-09T17:50:25.366Z,99024.84
2019-03-09T17:52:56.531Z,99036.48
2019-03-09T17:55:25.648Z,99041.31
2019-03-09T17:57:54.707Z,99041.73
2019-03-09T18:00:25.865Z,99050.27
2019-03-09T18:02:55.035Z,99051.39
2019-03-09T18:05:24.137Z,99042.44
2019-03-09T18:07:53.239Z,99054.47
2019-03-09T18:10:29.658Z,99056.13
2019-03-09T18:12:58.805Z,99072.89
2019-03-09T18:15:29.437Z,99065.86
2019-03-09T18:17:58.535Z,99073.45
2019-03-09T18:20:27.788Z,99074.09
2019-03-09T18:22:56.939Z,99087.59
2019-03-09T18:25:26.173Z,99076.19
2019-03-09T18:27:55.280Z,99084.16
2019-03-09T18:30:24.381Z,99087.36
2019-03-09T18:32:53.474Z,99085.36
2019-03-09T18:35:22.594Z,99087.67
2019-03-09T18:37:51.777Z,99097.09
2019-03-09T18:40:20.968Z,99096.33
2019-03-09T18:42:50.153Z,99108.14
2019-03-09T18:45:19.432Z,99124.00
2019-03-09T18:47:48.614Z,99120.10
2019-03-09T18:50:17.796Z,99099.33
2019-03-09T18:52:48.756Z,99117.14
2019-03-09T18:55:17.877Z,99118.08
2019-03-09T18:57:47.041Z,99128.62
2019-03-09T19:00:17.212Z,99128.97
2019-03-09T19:02:46.418Z,99134.48
2019-03-09T19:05:17.374Z,99131.14
2019-03-09T19:07:47.816Z,99139.81
2019-03-09T19:10:18.093Z,99148.12
2019-03-09T19:12:50.402Z,99150.22
2019-03-09T19:15:20.855Z,99155.83
2019-03-09T19:17:49.984Z,99164.36
2019-03-09T19:20:19.158Z,99166.33
2019-03-09T19:22:48.256Z,99158.83
2019-03-09T19:25:17.436Z,99174.08
2019-03-09T19:27:46.469Z,99169.25
2019-03-09T19:30:16.368Z,99177.22
2019-03-09T19:32:47.862Z,99167.02
2019-03-09T19:35:18.394Z,99167.83
2019-03-09T19:37:49.611Z,99174.43
2019-03-09T19:40:18.725Z,99178.28
2019-03-09T19:42:47.830Z,99186.09
2019-03-09T19:45:16.973Z,99175.97
2019-03-09T19:47:46.142Z,99187.84
2019-03-09T19:50:16.896Z,99190.72
2019-03-09T19:52:46.049Z,99187.92
2019-03-09T19:55:15.282Z,99192.81
2019-03-09T19:57:48.988Z,99190.63
2019-03-09T20:00:18.127Z,99174.34
2019-03-09T20:02:47.276Z,99195.39
2019-03-09T20:05:17.509Z,99189.26
2019-03-09T20:07:46.634Z,99200.52
2019-03-09T20:10:15.680Z,99203.36
2019-03-09T20:12:48.077Z,99187.16
2019-03-09T20:15:18.360Z,99190.24
2019-03-09T20:17:47.457Z,99178.75
2019-03-09T20:20:16.548Z,99191.05
2019-03-09T20:22:45.739Z,99194.02
2019-03-09T20:25:14.876Z,99190.45
2019-03-09T20:27:44.010Z,99201.51
2019-03-09T20:30:15.827Z,99202.12
2019-03-09T20:32:48.514Z,99201.34
2019-03-09T20:35:19.051Z,99196.45
2019-03-09T20:37:48.309Z,99197.52
2019-03-09T20:40:17.459Z,99196.11
2019-03-09T20:42:46.665Z,99198.76
2019-03-09T20:45:15.809Z,99202.88
2019-03-09T20:47:44.947Z,99203.09
2019-03-09T20:50:14.947Z,99204.80
2019-03-09T20:52:44.119Z,99203.72
2019-03-09T20:55:13.315Z,99210.16
2019-03-09T20:57:42.449Z,99193.53
2019-03-09T21:00:13.995Z,99198.34
2019-03-09T21:02:44.336Z,99199.61
2019-03-09T21:05:13.602Z,99194.91
2019-03-09T21:07:42.787Z,99185.26
2019-03-09T21:10:12.880Z,99189.45
2019-03-09T21:12:55.559Z,99200.81
2019-03-09T21:15:26.867Z,99200.99
2019-03-09T21:17:57.615Z,99195.70
2019-03-09T21:20:26.742Z,99191.22
2019-03-09T21:22:57.660Z,99187.77
2019-03-09T21:25:30.999Z,99191.63
2019-03-09T21:28:00.099Z,99199.05
2019-03-09T21:30:29.219Z,99212.33
2019-03-09T21:33:00.130Z,99202.17
2019-03-09T21:35:29.171Z,99204.27
2019-03-09T21:37:58.310Z,99211.28
2019-03-09T21:40:29.387Z,99213.67
2019-03-09T21:42:58.442Z,99206.73
2019-03-09T21:45:27.609Z,99213.54
2019-03-09T21:47:58.979Z,99212.55
2019-03-09T21:50:28.139Z,99205.61
2019-03-09T21:52:57.333Z,99204.22
2019-03-09T21:55:26.480Z,99204.14
2019-03-09T21:57:55.603Z,99204.83
2019-03-09T22:00:24.817Z,99211.77
2019-03-09T22:02:53.942Z,99206.53
2019-03-09T22:05:23.106Z,99211.78
2019-03-09T22:07:52.246Z,99211.55
2019-03-09T22:10:21.353Z,99215.33
2019-03-09T22:12:50.511Z,99199.34
2019-03-09T22:15:21.813Z,99201.62
2019-03-09T22:17:52.310Z,99203.88
2019-03-09T22:20:22.455Z,99201.42
2019-03-09T22:22:52.934Z,99201.22
2019-03-09T22:25:22.066Z,99202.52
2019-03-09T22:27:52.178Z,99195.14
2019-03-09T22:30:21.373Z,99190.64
2019-03-09T22:32:50.556Z,99186.80
2019-03-09T22:35:19.712Z,99193.07
2019-03-09T22:37:48.817Z,99177.44
2019-03-09T22:40:18.241Z,99187.38
2019-03-09T22:42:49.119Z,99182.09
2019-03-09T22:45:18.148Z,99174.25
2019-03-09T22:47:49.527Z,99176.15
2019-03-09T22:50:18.592Z,99182.23
2019-03-09T22:52:47.689Z,99173.84
2019-03-09T22:55:16.874Z,99167.56
2019-03-09T22:57:46.040Z,99168.34
2019-03-09T23:00:16.887Z,99161.83
2019-03-09T23:02:46.048Z,99152.54
2019-03-09T23:05:15.189Z,99161.05
2019-03-09T23:07:44.349Z,99154.34
2019-03-09T23:10:14.802Z,99146.52
2019-03-09T23:12:44.693Z,99154.13
2019-03-09T23:15:14.550Z,99147.64
2019-03-09T23:17:43.730Z,99155.20
2019-03-09T23:20:13.089Z,99143.37
2019-03-09T23:22:42.138Z,99146.10
2019-03-09T23:25:12.274Z,99142.47
2019-03-09T23:27:41.351Z,99132.73
2019-03-09T23:30:13.857Z,99130.44
2019-03-09T23:32:42.950Z,99125.10
2019-03-09T23:35:12.085Z,99124.41
2019-03-09T23:37:41.170Z,99120.92
2019-03-09T23:40:12.957Z,99105.20
2019-03-09T23:42:42.061Z,99097.98
2019-03-09T23:45:12.124Z,99108.00
2019-03-09T23:47:41.163Z,99104.99
2019-03-09T23:50:11.450Z,99101.05
2019-03-09T23:52:40.518Z,99101.41
2019-03-09T23:55:09.579Z,99103.36
2019-03-09T23:57:38.665Z,99091.77
